createdAt,value
2019-02-28T00:02:29.666Z,7.87
2019-02-28T00:05:05.821Z,7.57
2019-02-28T00:07:32.322Z,9.60
2019-02-28T00:10:05.279Z,7.37
2019-02-28T00:12:39.050Z,7.50
2019-02-28T00:15:09.708Z,7.47
2019-02-28T00:17:43.536Z,7.23
2019-02-28T00:20:16.295Z,6.83
2019-02-28T00:22:49.285Z,6.90
2019-02-28T00:25:20.267Z,6.80
2019-02-28T00:27:52.647Z,7.13
2019-02-28T00:30:23.939Z,7.20
2019-02-28T00:32:59.375Z,6.93
2019-02-28T00:35:31.544Z,6.97
2019-02-28T00:38:02.084Z,7.40
2019-02-28T00:40:34.448Z,6.60
2019-02-28T00:43:08.155Z,7.10
2019-02-28T00:45:39.001Z,7.03
2019-02-28T00:48:09.523Z,7.13
2019-02-28T00:50:40.150Z,6.87
2019-02-28T00:53:12.404Z,7.27
2019-02-28T00:55:45.981Z,6.77
2019-02-28T00:58:28.642Z,6.53
2019-02-28T01:00:56.225Z,7.70
2019-02-28T01:03:27.562Z,6.77
2019-02-28T01:05:58.123Z,7.23
2019-02-28T01:08:30.306Z,7.67
2019-02-28T01:11:04.169Z,7.00
2019-02-28T01:13:35.846Z,7.00
2019-02-28T01:16:08.256Z,6.90
2019-02-28T01:18:40.011Z,7.43
2019-02-28T01:21:11.974Z,6.93
2019-02-28T01:23:42.512Z,7.13
2019-02-28T01:26:13.187Z,7.40
2019-02-28T01:28:46.113Z,6.80
2019-02-28T01:31:16.613Z,6.90
2019-02-28T01:33:47.024Z,7.33
2019-02-28T01:36:17.520Z,7.40
2019-02-28T01:38:47.967Z,7.00
2019-02-28T01:41:20.802Z,7.10
2019-02-28T01:43:53.445Z,7.47
2019-02-28T01:46:28.517Z,7.07
2019-02-28T01:49:03.773Z,7.13
2019-02-28T01:51:36.601Z,8.60
2019-02-28T01:54:11.906Z,7.77
2019-02-28T01:56:42.542Z,7.60
2019-02-28T01:59:21.581Z,7.97
2019-02-28T02:01:52.805Z,7.07
2019-02-28T02:04:23.302Z,7.50
2019-02-28T02:06:53.927Z,7.70
2019-02-28T02:09:27.224Z,7.60
2019-02-28T02:11:58.907Z,7.43
2019-02-28T02:14:31.664Z,8.17
2019-02-28T02:17:02.152Z,8.30
2019-02-28T02:19:33.028Z,8.57
2019-02-28T02:22:09.127Z,7.97
2019-02-28T02:24:36.008Z,8.40
2019-02-28T02:27:06.611Z,7.80
2019-02-28T02:29:37.700Z,8.33
2019-02-28T02:32:08.230Z,8.70
2019-02-28T02:34:38.752Z,8.87
2019-02-28T02:37:09.564Z,9.03
2019-02-28T02:39:40.115Z,8.77
2019-02-28T02:42:11.681Z,9.10
2019-02-28T02:44:42.732Z,8.10
2019-02-28T02:47:13.415Z,9.07
2019-02-28T02:49:55.968Z,8.80
2019-02-28T02:52:29.961Z,9.40
2019-02-28T02:54:58.827Z,8.40
2019-02-28T02:57:29.265Z,9.20
2019-02-28T02:59:59.740Z,8.90
2019-02-28T03:02:34.321Z,8.87
2019-02-28T03:05:08.400Z,9.63
2019-02-28T03:07:40.151Z,8.97
2019-02-28T03:10:12.137Z,9.33
2019-02-28T03:12:43.901Z,9.17
2019-02-28T03:15:16.678Z,9.80
2019-02-28T03:17:49.900Z,8.97
2019-02-28T03:20:20.887Z,9.50
2019-02-28T03:22:51.362Z,9.27
2019-02-28T03:25:28.288Z,9.57
2019-02-28T03:27:58.758Z,10.27
2019-02-28T03:30:32.889Z,10.43
2019-02-28T03:33:01.399Z,10.40
2019-02-28T03:35:40.295Z,9.80
2019-02-28T03:38:10.630Z,10.97
2019-02-28T03:40:40.170Z,10.73
2019-02-28T03:43:17.006Z,10.80
2019-02-28T03:45:47.509Z,10.77
2019-02-28T03:48:23.043Z,11.30
2019-02-28T03:50:59.982Z,11.80
2019-02-28T03:53:32.416Z,11.90
2019-02-28T03:56:03.205Z,11.93
2019-02-28T03:58:41.608Z,11.60
2019-02-28T04:01:10.200Z,11.57
2019-02-28T04:03:41.159Z,12.27
2019-02-28T04:06:17.488Z,12.17
2019-02-28T04:08:48.215Z,11.67
2019-02-28T04:11:18.729Z,12.37
2019-02-28T04:13:52.501Z,12.80
2019-02-28T04:16:22.415Z,12.83
2019-02-28T04:18:55.811Z,13.17
2019-02-28T04:21:28.279Z,13.07
2019-02-28T04:24:00.516Z,13.17
2019-02-28T04:26:34.028Z,14.77
2019-02-28T04:29:04.505Z,13.87
2019-02-28T04:31:36.980Z,13.73
2019-02-28T04:34:12.990Z,13.00
2019-02-28T04:36:39.535Z,13.97
2019-02-28T04:39:11.595Z,14.73
2019-02-28T04:41:43.748Z,15.57
2019-02-28T04:44:18.257Z,15.60
2019-02-28T04:46:52.576Z,15.10
2019-02-28T04:49:24.939Z,15.03
2019-02-28T04:51:57.307Z,15.40
2019-02-28T04:54:28.726Z,15.60
2019-02-28T04:56:59.267Z,15.27
2019-02-28T04:59:31.550Z,16.47
2019-02-28T05:02:03.296Z,16.90
2019-02-28T05:04:36.105Z,17.03
2019-02-28T05:07:12.001Z,18.53
2019-02-28T05:09:45.184Z,16.97
2019-02-28T05:12:19.377Z,19.47
2019-02-28T05:14:49.948Z,19.27
2019-02-28T05:17:22.290Z,19.93
2019-02-28T05:19:52.620Z,20.10
2019-02-28T05:22:27.576Z,20.13
2019-02-28T05:25:00.091Z,20.43
2019-02-28T05:27:35.426Z,22.67
2019-02-28T05:30:09.431Z,21.17
2019-02-28T05:32:39.874Z,22.13
2019-02-28T05:35:10.464Z,22.03
2019-02-28T05:37:46.894Z,23.23
2019-02-28T05:40:13.734Z,23.53
2019-02-28T05:42:44.244Z,23.13
2019-02-28T05:45:19.098Z,22.63
2019-02-28T05:47:49.564Z,24.17
2019-02-28T05:50:23.456Z,25.60
2019-02-28T05:52:56.922Z,26.57
2019-02-28T05:55:30.353Z,25.60
2019-02-28T05:58:00.863Z,26.50
2019-02-28T06:00:33.373Z,26.10
2019-02-28T06:03:03.516Z,25.53
2019-02-28T06:05:34.317Z,25.80
2019-02-28T06:08:07.247Z,27.80
2019-02-28T06:10:37.961Z,31.67
2019-02-28T06:13:11.510Z,27.57
2019-02-28T06:15:46.127Z,29.80
2019-02-28T06:18:22.969Z,32.90
2019-02-28T06:21:00.736Z,32.20
2019-02-28T06:23:31.666Z,30.57
2019-02-28T06:26:05.158Z,32.53
2019-02-28T06:28:35.999Z,29.50
2019-02-28T06:31:07.294Z,30.50
2019-02-28T06:33:39.451Z,29.67
2019-02-28T06:36:10.753Z,29.87
2019-02-28T06:38:43.995Z,31.30
2019-02-28T06:41:20.057Z,32.40
2019-02-28T06:43:53.898Z,32.67
2019-02-28T06:46:26.343Z,31.90
2019-02-28T06:49:01.635Z,34.27
2019-02-28T06:51:29.706Z,35.10
2019-02-28T06:54:26.867Z,34.67
2019-02-28T06:56:57.615Z,33.57
2019-02-28T06:59:28.390Z,33.70
2019-02-28T07:01:59.050Z,34.43
2019-02-28T07:04:30.140Z,34.27
2019-02-28T07:07:07.362Z,33.10
2019-02-28T07:09:39.605Z,34.50
2019-02-28T07:12:10.363Z,35.27
2019-02-28T07:14:44.490Z,34.60
2019-02-28T07:17:13.787Z,34.10
2019-02-28T07:19:44.526Z,33.03
2019-02-28T07:22:19.628Z,35.37
2019-02-28T07:24:50.307Z,33.67
2019-02-28T07:27:23.342Z,35.77
2019-02-28T07:29:53.453Z,34.60
2019-02-28T07:32:26.094Z,31.90
2019-02-28T07:34:59.723Z,35.90
2019-02-28T07:37:31.389Z,31.83
2019-02-28T07:40:05.114Z,34.00
2019-02-28T07:42:37.571Z,34.17
2019-02-28T07:45:12.357Z,35.47
2019-02-28T07:47:45.502Z,36.47
2019-02-28T07:50:20.474Z,35.07
2019-02-28T07:52:53.240Z,32.90
2019-02-28T07:55:27.199Z,32.50
2019-02-28T07:57:58.131Z,35.37
2019-02-28T08:00:28.885Z,36.77
2019-02-28T08:03:00.882Z,37.33
2019-02-28T08:05:31.810Z,37.67
2019-02-28T08:08:10.422Z,39.43
2019-02-28T08:10:47.940Z,35.40
2019-02-28T08:13:20.327Z,36.57
2019-02-28T08:15:53.304Z,36.83
2019-02-28T08:18:28.877Z,36.63
2019-02-28T08:21:05.348Z,35.20
2019-02-28T08:23:37.618Z,35.93
2019-02-28T08:26:09.232Z,37.20
2019-02-28T08:28:43.796Z,37.50
2019-02-28T08:31:15.564Z,35.40
2019-02-28T08:33:48.055Z,39.10
2019-02-28T08:36:22.161Z,39.60
2019-02-28T08:38:53.380Z,38.60
2019-02-28T08:41:25.704Z,35.13
2019-02-28T08:43:59.612Z,38.00
2019-02-28T08:46:33.085Z,39.77
2019-02-28T08:49:07.211Z,36.60
2019-02-28T08:51:38.810Z,38.43
2019-02-28T08:54:09.659Z,39.07
2019-02-28T08:56:46.078Z,39.93
2019-02-28T08:59:18.170Z,39.93
2019-02-28T09:01:47.960Z,39.87
2019-02-28T09:04:23.679Z,39.20
2019-02-28T09:06:58.721Z,38.33
2019-02-28T09:09:34.489Z,37.73
2019-02-28T09:12:10.898Z,38.20
2019-02-28T09:14:43.716Z,36.77
2019-02-28T09:17:18.583Z,36.40
2019-02-28T09:19:49.804Z,37.50
2019-02-28T09:22:26.994Z,37.43
2019-02-28T09:24:56.568Z,35.57
2019-02-28T09:27:27.309Z,35.90
2019-02-28T09:30:00.339Z,34.83
2019-02-28T09:32:31.216Z,37.80
2019-02-28T09:35:12.246Z,37.30
2019-02-28T09:37:38.979Z,37.13
2019-02-28T09:40:13.901Z,37.20
2019-02-28T09:42:47.992Z,32.97
2019-02-28T09:45:39.861Z,37.37
2019-02-28T09:48:12.054Z,37.28
2019-02-28T09:50:48.511Z,35.40
2019-02-28T09:53:19.343Z,36.17
2019-02-28T09:55:50.639Z,36.60
2019-02-28T09:58:21.382Z,36.30
2019-02-28T10:00:52.196Z,36.37
2019-02-28T10:03:22.972Z,39.60
2019-02-28T10:05:54.197Z,36.38
2019-02-28T10:08:24.841Z,37.67
2019-02-28T10:10:56.106Z,38.50
2019-02-28T10:13:28.643Z,37.23
2019-02-28T10:15:59.573Z,36.57
2019-02-28T10:18:35.540Z,37.43
2019-02-28T10:21:09.784Z,36.07
2019-02-28T10:23:42.986Z,35.50
2019-02-28T10:26:14.375Z,36.13
2019-02-28T10:28:46.541Z,37.10
2019-02-28T10:31:17.303Z,38.38
2019-02-28T10:33:49.501Z,36.00
2019-02-28T10:36:22.918Z,37.50
2019-02-28T10:38:53.544Z,37.83
2019-02-28T10:41:31.488Z,36.58
2019-02-28T10:44:03.966Z,38.40
2019-02-28T10:46:38.091Z,37.45
2019-02-28T10:49:08.907Z,35.38
2019-02-28T10:51:44.670Z,36.38
2019-02-28T10:54:15.420Z,38.17
2019-02-28T10:56:52.711Z,38.30
2019-02-28T10:59:26.661Z,38.33
2019-02-28T11:01:59.233Z,34.90
2019-02-28T11:04:30.244Z,37.80
2019-02-28T11:07:03.003Z,34.55
2019-02-28T11:09:35.923Z,35.73
2019-02-28T11:12:11.757Z,36.10
2019-02-28T11:14:43.912Z,33.90
2019-02-28T11:17:21.772Z,34.85
2019-02-28T11:19:55.304Z,36.28
2019-02-28T11:22:26.240Z,37.05
2019-02-28T11:25:03.528Z,35.83
2019-02-28T11:27:38.329Z,36.93
2019-02-28T11:30:13.898Z,35.95
2019-02-28T11:32:46.758Z,35.73
2019-02-28T11:35:23.165Z,36.08
2019-02-28T11:37:53.047Z,35.25
2019-02-28T11:40:28.630Z,35.48
2019-02-28T11:43:05.755Z,34.80
2019-02-28T11:45:36.969Z,35.00
2019-02-28T11:48:12.798Z,35.60
2019-02-28T11:50:47.500Z,37.15
2019-02-28T11:53:26.620Z,37.83
2019-02-28T11:55:57.554Z,41.10
2019-02-28T11:58:30.382Z,36.55
2019-02-28T12:01:02.293Z,35.15
2019-02-28T12:03:35.662Z,37.58
2019-02-28T12:06:08.044Z,34.78
2019-02-28T12:08:45.000Z,36.80
2019-02-28T12:11:18.209Z,36.95
2019-02-28T12:13:51.698Z,36.08
2019-02-28T12:16:24.447Z,33.83
2019-02-28T12:18:58.365Z,35.45
2019-02-28T12:21:31.541Z,35.03
2019-02-28T12:24:06.623Z,36.90
2019-02-28T12:26:37.481Z,37.33
2019-02-28T12:29:14.445Z,32.35
2019-02-28T12:31:46.316Z,36.75
2019-02-28T12:34:18.334Z,35.78
2019-02-28T12:36:55.158Z,32.30
2019-02-28T12:39:26.029Z,33.85
2019-02-28T12:41:59.533Z,46.55
2019-02-28T12:44:33.836Z,37.03
2019-02-28T12:47:09.365Z,35.60
2019-02-28T12:49:40.384Z,35.67
2019-02-28T12:52:14.562Z,33.80
2019-02-28T12:54:46.319Z,34.03
2019-02-28T12:57:19.308Z,35.17
2019-02-28T12:59:54.058Z,33.87
2019-02-28T13:02:24.952Z,36.13
2019-02-28T13:04:55.909Z,35.85
2019-02-28T13:07:26.617Z,33.35
2019-02-28T13:09:57.511Z,33.63
2019-02-28T13:12:37.474Z,35.55
2019-02-28T13:15:13.250Z,34.20
2019-02-28T13:17:51.605Z,35.20
2019-02-28T13:20:32.402Z,36.50
2019-02-28T13:23:01.921Z,36.30
2019-02-28T13:25:33.430Z,35.27
2019-02-28T13:28:04.816Z,34.40
2019-02-28T13:30:35.675Z,33.92
2019-02-28T13:33:11.030Z,35.10
2019-02-28T13:35:45.326Z,31.27
2019-02-28T13:38:19.238Z,35.83
2019-02-28T13:40:46.725Z,34.92
2019-02-28T13:43:24.179Z,34.37
2019-02-28T13:45:57.923Z,33.90
2019-02-28T13:48:44.749Z,35.50
2019-02-28T13:51:16.368Z,36.60
2019-02-28T13:53:47.272Z,33.25
2019-02-28T13:56:18.136Z,37.27
2019-02-28T13:58:53.624Z,36.67
2019-02-28T14:01:23.502Z,36.33
2019-02-28T14:03:55.882Z,36.70
2019-02-28T14:06:26.780Z,35.10
2019-02-28T14:08:57.650Z,36.77
2019-02-28T14:11:32.056Z,38.37
2019-02-28T14:14:06.304Z,37.20
2019-02-28T14:16:35.470Z,36.00
2019-02-28T14:19:06.456Z,37.13
2019-02-28T14:21:40.267Z,36.53
2019-02-28T14:24:13.965Z,37.78
2019-02-28T14:26:46.548Z,37.23
2019-02-28T14:29:17.813Z,37.37
2019-02-28T14:31:49.012Z,39.08
2019-02-28T14:34:26.221Z,37.95
2019-02-28T14:36:55.608Z,38.53
2019-02-28T14:39:26.866Z,40.83
2019-02-28T14:42:03.166Z,39.57
2019-02-28T14:44:34.111Z,39.43
2019-02-28T14:47:08.307Z,39.77
2019-02-28T14:49:44.547Z,41.03
2019-02-28T14:52:20.806Z,39.17
2019-02-28T14:54:57.159Z,40.33
2019-02-28T14:57:29.866Z,39.90
2019-02-28T15:00:06.415Z,40.03
2019-02-28T15:02:39.566Z,42.00
2019-02-28T15:05:16.717Z,40.87
2019-02-28T15:07:47.507Z,41.20
2019-02-28T15:10:20.222Z,42.77
2019-02-28T15:12:51.213Z,44.37
2019-02-28T15:15:22.575Z,47.20
2019-02-28T15:17:53.418Z,44.37
2019-02-28T15:20:38.665Z,46.57
2019-02-28T15:23:11.332Z,43.73
2019-02-28T15:25:55.750Z,46.80
2019-02-28T15:28:29.706Z,44.10
2019-02-28T15:31:08.631Z,45.47
2019-02-28T15:33:39.525Z,46.47
2019-02-28T15:36:10.585Z,44.77
2019-02-28T15:38:44.478Z,44.07
2019-02-28T15:41:16.387Z,44.27
2019-02-28T15:43:53.520Z,45.17
2019-02-28T15:46:27.569Z,44.27
2019-02-28T15:49:00.649Z,43.30
2019-02-28T15:51:33.444Z,44.00
2019-02-28T15:54:05.090Z,44.17
2019-02-28T15:56:39.053Z,43.93
2019-02-28T15:59:14.777Z,42.30
2019-02-28T16:01:48.164Z,44.00
2019-02-28T16:04:19.605Z,40.93
2019-02-28T16:06:56.612Z,40.67
2019-02-28T16:09:23.293Z,43.43
2019-02-28T16:11:54.233Z,44.10
2019-02-28T16:14:25.618Z,42.67
2019-02-28T16:16:56.842Z,43.73
2019-02-28T16:19:32.606Z,44.83
2019-02-28T16:22:05.590Z,42.73
2019-02-28T16:24:39.857Z,41.10
2019-02-28T16:27:15.119Z,44.07
2019-02-28T16:29:46.064Z,40.60
2019-02-28T16:32:19.408Z,41.27
2019-02-28T16:34:51.256Z,40.83
2019-02-28T16:37:24.892Z,40.73
2019-02-28T16:39:56.162Z,39.47
2019-02-28T16:42:32.158Z,39.57
2019-02-28T16:45:06.079Z,39.30
2019-02-28T16:47:38.228Z,38.47
2019-02-28T16:50:09.978Z,39.73
2019-02-28T16:52:41.435Z,39.23
2019-02-28T16:55:12.671Z,38.70
2019-02-28T16:57:47.103Z,39.77
2019-02-28T17:00:20.619Z,40.30
2019-02-28T17:02:53.733Z,40.10
2019-02-28T17:05:28.384Z,39.30
2019-02-28T17:08:00.518Z,40.73
2019-02-28T17:10:36.604Z,39.13
2019-02-28T17:13:26.860Z,42.27
2019-02-28T17:16:24.872Z,42.03
2019-02-28T17:19:00.027Z,40.47
2019-02-28T17:21:31.097Z,41.77
2019-02-28T17:24:08.559Z,40.43
2019-02-28T17:26:58.008Z,45.03
2019-02-28T17:29:37.745Z,46.27
2019-02-28T17:32:08.904Z,45.43
2019-02-28T17:34:43.925Z,45.67
2019-02-28T17:37:15.585Z,43.83
2019-02-28T17:39:51.177Z,43.90
2019-02-28T17:42:22.040Z,42.63
2019-02-28T17:45:16.452Z,41.70
2019-02-28T17:48:33.699Z,40.90
2019-02-28T17:51:14.945Z,41.30
2019-02-28T17:54:04.438Z,42.93
2019-02-28T17:57:06.352Z,41.23
2019-02-28T17:59:45.342Z,38.87
2019-02-28T18:02:47.713Z,39.67
2019-02-28T18:06:02.261Z,38.87
2019-02-28T18:09:09.555Z,40.70
2019-02-28T18:11:56.691Z,43.83
2019-02-28T18:15:00.273Z,40.23
2019-02-28T18:17:57.403Z,39.00
2019-02-28T18:21:00.798Z,39.23
2019-02-28T18:24:00.238Z,41.00
2019-02-28T18:27:03.742Z,39.17
2019-02-28T18:29:59.617Z,40.40
2019-02-28T18:32:33.312Z,41.93
2019-02-28T18:35:02.350Z,40.73
2019-02-28T18:37:34.516Z,41.30
2019-02-28T18:40:05.548Z,40.57
2019-02-28T18:42:36.508Z,40.63
2019-02-28T18:45:11.352Z,40.83
2019-02-28T18:47:47.602Z,42.03
2019-02-28T18:50:21.407Z,41.57
2019-02-28T18:52:51.863Z,40.53
2019-02-28T18:55:22.303Z,41.50
2019-02-28T18:57:54.583Z,41.03
2019-02-28T19:00:28.835Z,41.13
2019-02-28T19:03:03.429Z,43.03
2019-02-28T19:05:33.891Z,40.83
2019-02-28T19:08:10.283Z,41.90
2019-02-28T19:10:45.435Z,41.27
2019-02-28T19:13:18.555Z,42.47
2019-02-28T19:15:54.883Z,39.20
2019-02-28T19:18:26.452Z,40.43
2019-02-28T19:20:59.736Z,39.50
2019-02-28T19:23:31.624Z,42.20
2019-02-28T19:26:02.225Z,44.13
2019-02-28T19:28:35.880Z,40.30
2019-02-28T19:31:08.040Z,40.33
2019-02-28T19:33:40.932Z,40.30
2019-02-28T19:36:18.180Z,40.13
2019-02-28T19:38:50.212Z,39.37
2019-02-28T19:41:24.196Z,42.30
2019-02-28T19:43:58.829Z,40.77
2019-02-28T19:46:34.924Z,40.03
2019-02-28T19:49:05.530Z,40.70
2019-02-28T19:51:43.111Z,44.40
2019-02-28T19:54:15.845Z,44.23
2019-02-28T19:56:46.308Z,42.20
2019-02-28T19:59:21.880Z,40.70
2019-02-28T20:01:56.711Z,41.33
2019-02-28T20:04:27.265Z,40.90
2019-02-28T20:06:59.039Z,43.63
2019-02-28T20:09:36.275Z,43.63
2019-02-28T20:12:12.930Z,45.07
2019-02-28T20:14:44.768Z,45.30
2019-02-28T20:17:15.557Z,44.63
2019-02-28T20:19:52.381Z,47.40
2019-02-28T20:22:23.149Z,44.67
2019-02-28T20:24:57.379Z,47.50
2019-02-28T20:27:27.989Z,44.73
2019-02-28T20:29:58.532Z,45.00
2019-02-28T20:32:32.163Z,45.87
2019-02-28T20:35:02.939Z,46.47
2019-02-28T20:37:34.203Z,47.47
2019-02-28T20:40:06.841Z,51.20
2019-02-28T20:42:37.343Z,46.90
2019-02-28T20:45:11.054Z,47.40
2019-02-28T20:47:41.763Z,52.20
2019-02-28T20:50:15.812Z,48.50
2019-02-28T20:52:46.625Z,47.20
2019-02-28T20:55:17.169Z,52.47
2019-02-28T20:57:47.770Z,49.80
2019-02-28T21:00:20.873Z,47.20
2019-02-28T21:02:51.648Z,47.27
2019-02-28T21:05:22.157Z,47.23
2019-02-28T21:07:52.839Z,47.50
2019-02-28T21:10:23.591Z,48.13
2019-02-28T21:12:56.748Z,48.43
2019-02-28T21:15:27.415Z,47.00
2019-02-28T21:17:58.312Z,47.73
2019-02-28T21:20:28.953Z,48.17
2019-02-28T21:23:01.180Z,46.80
2019-02-28T21:25:34.936Z,46.67
2019-02-28T21:28:05.522Z,46.37
2019-02-28T21:30:36.090Z,46.43
2019-02-28T21:33:12.195Z,46.90
2019-02-28T21:35:42.995Z,47.20
2019-02-28T21:38:16.407Z,45.03
2019-02-28T21:40:54.120Z,44.57
2019-02-28T21:43:26.818Z,44.40
2019-02-28T21:45:57.401Z,43.83
2019-02-28T21:48:30.160Z,44.90
2019-02-28T21:51:02.702Z,44.07
2019-02-28T21:53:35.941Z,42.97
2019-02-28T21:56:06.933Z,43.87
2019-02-28T21:58:37.586Z,44.50
2019-02-28T22:01:08.071Z,45.30
2019-02-28T22:03:40.877Z,44.30
2019-02-28T22:06:14.998Z,43.07
2019-02-28T22:08:50.406Z,42.07
2019-02-28T22:11:20.946Z,42.10
2019-02-28T22:13:51.653Z,41.20
2019-02-28T22:16:22.188Z,40.73
2019-02-28T22:18:52.688Z,41.47
2019-02-28T22:21:24.239Z,41.70
2019-02-28T22:23:57.572Z,41.50
2019-02-28T22:26:28.332Z,40.57
2019-02-28T22:29:01.848Z,40.53
2019-02-28T22:32:08.168Z,39.57
2019-02-28T22:34:44.551Z,40.10
2019-02-28T22:37:19.656Z,39.33
2019-02-28T22:39:54.864Z,40.33
2019-02-28T22:42:27.049Z,39.13
2019-02-28T22:44:59.415Z,38.47
2019-02-28T22:47:30.033Z,38.83
2019-02-28T22:50:01.164Z,36.03
2019-02-28T22:52:32.347Z,37.33
2019-02-28T22:55:06.381Z,35.83
2019-02-28T22:57:37.096Z,35.17
2019-02-28T23:00:19.784Z,36.40
2019-02-28T23:02:54.441Z,35.67
2019-02-28T23:05:28.943Z,36.13
2019-02-28T23:07:59.403Z,36.30
2019-02-28T23:10:29.941Z,34.10
2019-02-28T23:13:00.549Z,36.37
2019-02-28T23:15:36.730Z,32.60
2019-02-28T23:18:08.741Z,34.27
2019-02-28T23:20:39.392Z,32.83
2019-02-28T23:23:12.644Z,32.67
2019-02-28T23:25:46.136Z,32.90
2019-02-28T23:28:31.597Z,31.20
2019-02-28T23:31:37.785Z,31.87
2019-02-28T23:34:16.456Z,32.77
2019-02-28T23:36:48.691Z,31.73
2019-02-28T23:39:24.625Z,31.97
2019-02-28T23:41:55.407Z,30.60
2019-02-28T23:44:25.856Z,32.40
2019-02-28T23:46:56.389Z,32.40
2019-02-28T23:49:28.480Z,30.63
2019-02-28T23:51:59.112Z,31.83
2019-02-28T23:54:29.914Z,30.43
2019-02-28T23:57:00.525Z,30.77
2019-02-28T23:59:31.088Z,30.03
